createdAt,value
2023-07-04T00:03:21.530Z,51.40
2023-07-04T00:13:23.021Z,50.80
2023-07-04T00:23:24.498Z,50.70
2023-07-04T00:33:25.910Z,50.60
2023-07-04T00:43:27.340Z,50.70
2023-07-04T00:53:28.770Z,51.60
2023-07-04T01:03:30.288Z,52.20
2023-07-04T01:13:31.819Z,52.30
2023-07-04T01:23:33.253Z,52.60
2023-07-04T01:33:34.680Z,52.70
2023-07-04T01:43:36.187Z,52.50
2023-07-04T01:53:37.638Z,52.30
2023-07-04T02:03:39.160Z,53.00
2023-07-04T02:13:40.697Z,53.90
2023-07-04T02:23:42.201Z,55.50
2023-07-04T02:33:43.703Z,56.70
2023-07-04T02:43:45.137Z,55.60
2023-07-04T02:53:46.591Z,55.60
2023-07-04T03:03:48.184Z,55.40
2023-07-04T03:13:49.925Z,55.10
2023-07-04T03:23:51.373Z,55.00
2023-07-04T03:33:52.834Z,55.20
2023-07-04T03:43:54.288Z,55.60
2023-07-04T03:53:55.730Z,56.30
2023-07-04T04:03:57.369Z,56.50
2023-07-04T04:13:58.914Z,56.90
2023-07-04T04:24:00.356Z,56.40
2023-07-04T04:34:01.827Z,55.80
2023-07-04T04:44:03.312Z,55.40
2023-07-04T04:54:04.874Z,55.10
2023-07-04T05:04:06.349Z,54.60
2023-07-04T05:14:07.811Z,54.00
2023-07-04T05:24:09.235Z,54.00
2023-07-04T05:34:10.657Z,53.80
2023-07-04T05:44:12.167Z,54.30
2023-07-04T05:54:13.622Z,54.80
2023-07-04T06:04:15.223Z,55.10
2023-07-04T06:14:16.820Z,55.20
2023-07-04T06:24:18.279Z,55.20
2023-07-04T06:34:19.720Z,55.30
2023-07-04T06:44:21.179Z,55.50
2023-07-04T06:54:22.637Z,55.10
2023-07-04T07:04:24.070Z,54.50
2023-07-04T07:14:25.506Z,54.50
2023-07-04T07:24:27.239Z,54.30
2023-07-04T07:34:30.741Z,53.90
2023-07-04T07:44:32.188Z,53.80
2023-07-04T07:54:33.605Z,54.10
2023-07-04T08:04:35.290Z,54.60
2023-07-04T08:14:36.896Z,53.90
2023-07-04T08:24:38.334Z,53.60
2023-07-04T08:34:39.773Z,53.30
2023-07-04T08:44:41.198Z,53.20
2023-07-04T08:54:42.629Z,53.00
2023-07-04T09:04:44.059Z,52.70
2023-07-04T09:14:45.490Z,52.70
2023-07-04T09:24:46.920Z,52.60
2023-07-04T09:34:48.374Z,52.60
2023-07-04T09:44:49.813Z,52.40
2023-07-04T09:54:51.297Z,52.40
2023-07-04T10:04:52.744Z,52.20
2023-07-04T10:14:54.206Z,52.30
2023-07-04T10:24:55.641Z,52.90
2023-07-04T10:34:57.076Z,52.10
2023-07-04T10:44:58.531Z,51.90
2023-07-04T10:54:59.994Z,52.10
2023-07-04T11:05:01.544Z,51.80
2023-07-04T11:15:03.171Z,51.50
2023-07-04T11:25:04.732Z,52.40
2023-07-04T11:35:06.176Z,51.50
2023-07-04T11:45:07.615Z,51.50
2023-07-04T11:55:09.108Z,51.20
2023-07-04T12:05:10.559Z,51.40
2023-07-04T12:15:12.012Z,51.60
2023-07-04T12:25:13.452Z,52.50
2023-07-04T12:35:14.877Z,52.10
2023-07-04T12:45:16.316Z,51.70
2023-07-04T12:55:19.416Z,51.70
2023-07-04T13:05:22.042Z,51.30
2023-07-04T13:15:23.523Z,50.60
2023-07-04T13:25:40.737Z,50.60
2023-07-04T13:35:42.908Z,50.80
2023-07-04T13:45:44.545Z,50.70
2023-07-04T13:55:46.081Z,50.50
2023-07-04T14:05:54.477Z,50.20
2023-07-04T14:26:03.150Z,50.20
2023-07-04T14:36:04.583Z,49.90
2023-07-04T14:46:07.199Z,49.40
2023-07-04T14:56:09.414Z,49.30
2023-07-04T15:06:10.830Z,49.10
2023-07-04T15:16:12.288Z,48.70
2023-07-04T15:26:25.256Z,48.60
2023-07-04T15:36:28.262Z,48.50
2023-07-04T15:46:29.740Z,48.40
2023-07-04T15:56:31.283Z,48.30
2023-07-04T16:06:32.717Z,48.40
2023-07-04T16:16:34.209Z,48.40
2023-07-04T16:26:35.672Z,48.30
2023-07-04T16:36:37.110Z,48.20
2023-07-04T16:46:38.585Z,48.30
2023-07-04T16:56:40.120Z,48.60
2023-07-04T17:06:41.558Z,48.40
2023-07-04T17:16:43.011Z,47.90
2023-07-04T17:26:44.495Z,48.00
2023-07-04T17:36:45.936Z,48.20
2023-07-04T17:46:47.428Z,47.90
2023-07-04T17:56:48.896Z,48.20
2023-07-04T18:06:50.360Z,48.30
2023-07-04T18:16:51.823Z,48.40
2023-07-04T18:26:53.330Z,48.70
2023-07-04T18:36:54.773Z,48.60
2023-07-04T18:46:56.252Z,48.90
2023-07-04T18:56:57.738Z,49.10
2023-07-04T19:06:59.197Z,49.10
2023-07-04T19:17:00.769Z,48.90
2023-07-04T19:27:02.281Z,49.30
2023-07-04T19:37:04.230Z,49.70
2023-07-04T19:47:06.105Z,49.70
2023-07-04T19:57:07.557Z,49.80
2023-07-04T20:07:11.968Z,81.90
2023-07-04T20:17:13.887Z,69.90
2023-07-04T20:27:16.265Z,59.50
2023-07-04T20:37:18.721Z,58.00
2023-07-04T20:47:20.941Z,58.20
2023-07-04T20:57:22.420Z,58.30
2023-07-04T21:07:23.870Z,58.30
2023-07-04T21:17:25.450Z,58.60
2023-07-04T21:27:26.951Z,59.10
2023-07-04T21:37:28.389Z,59.60
2023-07-04T21:47:29.882Z,59.70
2023-07-04T21:57:31.346Z,60.60
2023-07-04T22:07:32.807Z,61.00
2023-07-04T22:17:34.312Z,61.50
2023-07-04T22:27:35.848Z,62.00
2023-07-04T22:37:37.293Z,62.00
2023-07-04T22:47:38.792Z,62.10
2023-07-04T22:57:40.262Z,62.40
2023-07-04T23:07:41.708Z,62.50
2023-07-04T23:17:43.309Z,62.90
2023-07-04T23:27:44.841Z,62.70
2023-07-04T23:37:46.255Z,63.40
2023-07-04T23:47:47.739Z,64.10
2023-07-04T23:57:49.259Z,64.40
